sensor_id;sensor_type;location;lat;lon;timestamp;temperature;humidity
21353;DHT22;10834;52.268;6.770;2023-02-13T00:00:11;7.70;99.90
21353;DHT22;10834;52.268;6.770;2023-02-13T00:02:59;7.70;99.90
21353;DHT22;10834;52.268;6.770;2023-02-13T00:05:46;7.70;99.90
21353;DHT22;10834;52.268;6.770;2023-02-13T00:08:32;7.70;99.90
21353;DHT22;10834;52.268;6.770;2023-02-13T00:11:18;7.70;99.90
21353;DHT22;10834;52.268;6.770;2023-02-13T00:14:05;7.70;99.90
21353;DHT22;10834;52.268;6.770;2023-02-13T00:16:51;7.70;99.90
21353;DHT22;10834;52.268;6.770;2023-02-13T00:19:37;7.60;99.90
21353;DHT22;10834;52.268;6.770;2023-02-13T00:22:23;7.60;99.90
21353;DHT22;10834;52.268;6.770;2023-02-13T00:25:10;7.60;99.90
21353;DHT22;10834;52.268;6.770;2023-02-13T00:27:56;7.50;99.90
21353;DHT22;10834;52.268;6.770;2023-02-13T00:30:42;7.50;99.90
21353;DHT22;10834;52.268;6.770;2023-02-13T00:33:28;7.50;99.90
21353;DHT22;10834;52.268;6.770;2023-02-13T00:36:16;7.50;99.90
21353;DHT22;10834;52.268;6.770;2023-02-13T00:39:03;7.50;99.90
21353;DHT22;10834;52.268;6.770;2023-02-13T00:41:49;7.40;99.90
21353;DHT22;10834;52.268;6.770;2023-02-13T00:44:35;7.40;99.90
21353;DHT22;10834;52.268;6.770;2023-02-13T00:47:21;7.40;99.90
21353;DHT22;10834;52.268;6.770;2023-02-13T00:50:07;7.40;99.90
21353;DHT22;10834;52.268;6.770;2023-02-13T00:52:54;7.40;99.90
21353;DHT22;10834;52.268;6.770;2023-02-13T00:55:40;7.30;99.90
21353;DHT22;10834;52.268;6.770;2023-02-13T00:58:26;7.40;99.90
21353;DHT22;10834;52.268;6.770;2023-02-13T01:01:12;7.30;99.90
21353;DHT22;10834;52.268;6.770;2023-02-13T01:03:59;7.30;99.90
21353;DHT22;10834;52.268;6.770;2023-02-13T01:06:44;7.30;99.90
21353;DHT22;10834;52.268;6.770;2023-02-13T01:09:31;7.30;99.90
21353;DHT22;10834;52.268;6.770;2023-02-13T01:12:17;7.30;99.90
21353;DHT22;10834;52.268;6.770;2023-02-13T01:15:04;7.20;99.90
21353;DHT22;10834;52.268;6.770;2023-02-13T01:17:54;7.20;99.90
21353;DHT22;10834;52.268;6.770;2023-02-13T01:20:42;7.20;99.90
21353;DHT22;10834;52.268;6.770;2023-02-13T01:23:30;7.20;99.90
21353;DHT22;10834;52.268;6.770;2023-02-13T01:26:19;7.20;99.90
21353;DHT22;10834;52.268;6.770;2023-02-13T01:29:06;7.20;99.90
21353;DHT22;10834;52.268;6.770;2023-02-13T01:31:52;7.20;99.90
21353;DHT22;10834;52.268;6.770;2023-02-13T01:34:38;7.20;99.90
21353;DHT22;10834;52.268;6.770;2023-02-13T01:37:24;7.20;99.90
21353;DHT22;10834;52.268;6.770;2023-02-13T01:40:12;7.30;99.90
21353;DHT22;10834;52.268;6.770;2023-02-13T01:42:58;7.30;99.90
21353;DHT22;10834;52.268;6.770;2023-02-13T01:45:47;7.20;99.90
21353;DHT22;10834;52.268;6.770;2023-02-13T01:48:34;7.20;99.90
21353;DHT22;10834;52.268;6.770;2023-02-13T01:51:26;7.20;99.90
21353;DHT22;10834;52.268;6.770;2023-02-13T01:54:33;7.20;99.90
21353;DHT22;10834;52.268;6.770;2023-02-13T01:57:22;7.20;99.90
21353;DHT22;10834;52.268;6.770;2023-02-13T02:00:12;7.20;99.90
21353;DHT22;10834;52.268;6.770;2023-02-13T02:03:12;7.20;99.90
21353;DHT22;10834;52.268;6.770;2023-02-13T02:06:01;7.20;99.90
21353;DHT22;10834;52.268;6.770;2023-02-13T02:08:49;7.20;99.90
21353;DHT22;10834;52.268;6.770;2023-02-13T02:11:51;7.20;99.90
21353;DHT22;10834;52.268;6.770;2023-02-13T02:14:39;7.20;99.90
21353;DHT22;10834;52.268;6.770;2023-02-13T02:17:26;7.10;99.90
21353;DHT22;10834;52.268;6.770;2023-02-13T02:32:39;7.10;99.90
21353;DHT22;10834;52.268;6.770;2023-02-13T02:35:42;7.10;99.90
21353;DHT22;10834;52.268;6.770;2023-02-13T02:41:54;7.10;99.90
21353;DHT22;10834;52.268;6.770;2023-02-13T02:44:55;7.10;99.90
21353;DHT22;10834;52.268;6.770;2023-02-13T02:51:26;7.10;99.90
21353;DHT22;10834;52.268;6.770;2023-02-13T02:54:26;7.10;99.90
21353;DHT22;10834;52.268;6.770;2023-02-13T02:57:43;7.10;99.90
21353;DHT22;10834;52.268;6.770;2023-02-13T03:00:49;7.10;99.90
21353;DHT22;10834;52.268;6.770;2023-02-13T03:03:56;7.10;99.90
21353;DHT22;10834;52.268;6.770;2023-02-13T03:07:06;7.10;99.90
21353;DHT22;10834;52.268;6.770;2023-02-13T03:10:03;7.10;99.90
21353;DHT22;10834;52.268;6.770;2023-02-13T03:13:16;7.00;99.90
21353;DHT22;10834;52.268;6.770;2023-02-13T03:16:26;7.10;99.90
21353;DHT22;10834;52.268;6.770;2023-02-13T03:28:37;7.10;99.90
21353;DHT22;10834;52.268;6.770;2023-02-13T03:32:00;7.00;99.90
21353;DHT22;10834;52.268;6.770;2023-02-13T03:35:02;7.10;99.90
21353;DHT22;10834;52.268;6.770;2023-02-13T03:38:16;7.10;99.90
21353;DHT22;10834;52.268;6.770;2023-02-13T03:41:13;7.10;99.90
21353;DHT22;10834;52.268;6.770;2023-02-13T03:45:00;7.20;99.90
21353;DHT22;10834;52.268;6.770;2023-02-13T03:48:05;7.20;99.90
21353;DHT22;10834;52.268;6.770;2023-02-13T03:50:56;7.20;99.90
21353;DHT22;10834;52.268;6.770;2023-02-13T03:53:45;7.20;99.90
21353;DHT22;10834;52.268;6.770;2023-02-13T03:56:34;7.20;99.90
21353;DHT22;10834;52.268;6.770;2023-02-13T03:59:40;7.20;99.90
21353;DHT22;10834;52.268;6.770;2023-02-13T04:02:33;7.20;99.90
21353;DHT22;10834;52.268;6.770;2023-02-13T04:05:25;7.20;99.90
21353;DHT22;10834;52.268;6.770;2023-02-13T04:08:13;7.20;99.90
21353;DHT22;10834;52.268;6.770;2023-02-13T04:11:09;7.20;99.90
21353;DHT22;10834;52.268;6.770;2023-02-13T04:17:47;7.20;99.90
21353;DHT22;10834;52.268;6.770;2023-02-13T04:20:33;7.20;99.90
21353;DHT22;10834;52.268;6.770;2023-02-13T04:23:19;7.20;99.90
21353;DHT22;10834;52.268;6.770;2023-02-13T04:26:10;7.20;99.90
21353;DHT22;10834;52.268;6.770;2023-02-13T04:28:57;7.20;99.90
21353;DHT22;10834;52.268;6.770;2023-02-13T04:31:43;7.20;99.90
21353;DHT22;10834;52.268;6.770;2023-02-13T04:34:29;7.20;99.90
21353;DHT22;10834;52.268;6.770;2023-02-13T04:37:15;7.20;99.90
21353;DHT22;10834;52.268;6.770;2023-02-13T04:40:01;7.20;99.90
21353;DHT22;10834;52.268;6.770;2023-02-13T04:42:48;7.20;99.90
21353;DHT22;10834;52.268;6.770;2023-02-13T04:45:34;7.20;99.90
21353;DHT22;10834;52.268;6.770;2023-02-13T04:48:20;7.20;99.90
21353;DHT22;10834;52.268;6.770;2023-02-13T04:51:06;7.20;99.90
21353;DHT22;10834;52.268;6.770;2023-02-13T04:53:52;7.20;99.90
21353;DHT22;10834;52.268;6.770;2023-02-13T04:56:38;7.20;99.90
21353;DHT22;10834;52.268;6.770;2023-02-13T04:59:24;7.20;99.90
21353;DHT22;10834;52.268;6.770;2023-02-13T05:02:10;7.20;99.90
21353;DHT22;10834;52.268;6.770;2023-02-13T05:04:57;7.20;99.90
21353;DHT22;10834;52.268;6.770;2023-02-13T05:07:43;7.20;99.90
21353;DHT22;10834;52.268;6.770;2023-02-13T05:10:29;7.20;99.90
21353;DHT22;10834;52.268;6.770;2023-02-13T05:13:15;7.20;99.90
21353;DHT22;10834;52.268;6.770;2023-02-13T05:16:02;7.20;99.90
21353;DHT22;10834;52.268;6.770;2023-02-13T05:18:48;7.20;99.90
21353;DHT22;10834;52.268;6.770;2023-02-13T05:21:34;7.20;99.90
21353;DHT22;10834;52.268;6.770;2023-02-13T05:24:39;7.20;99.90
21353;DHT22;10834;52.268;6.770;2023-02-13T05:27:24;7.20;99.90
21353;DHT22;10834;52.268;6.770;2023-02-13T05:30:11;7.20;99.90
21353;DHT22;10834;52.268;6.770;2023-02-13T05:32:57;7.20;99.90
21353;DHT22;10834;52.268;6.770;2023-02-13T05:35:43;7.20;99.90
21353;DHT22;10834;52.268;6.770;2023-02-13T05:38:29;7.20;99.90
21353;DHT22;10834;52.268;6.770;2023-02-13T05:41:16;7.20;99.90
21353;DHT22;10834;52.268;6.770;2023-02-13T05:44:02;7.20;99.90
21353;DHT22;10834;52.268;6.770;2023-02-13T05:46:48;7.20;99.90
21353;DHT22;10834;52.268;6.770;2023-02-13T05:49:34;7.20;99.90
21353;DHT22;10834;52.268;6.770;2023-02-13T05:52:20;7.20;99.90
21353;DHT22;10834;52.268;6.770;2023-02-13T05:55:06;7.30;99.90
21353;DHT22;10834;52.268;6.770;2023-02-13T05:57:56;7.20;99.90
21353;DHT22;10834;52.268;6.770;2023-02-13T06:00:43;7.20;99.90
21353;DHT22;10834;52.268;6.770;2023-02-13T06:03:30;7.20;99.90
21353;DHT22;10834;52.268;6.770;2023-02-13T06:06:17;7.20;99.90
21353;DHT22;10834;52.268;6.770;2023-02-13T06:09:03;7.20;99.90
21353;DHT22;10834;52.268;6.770;2023-02-13T06:11:49;7.20;99.90
21353;DHT22;10834;52.268;6.770;2023-02-13T06:14:35;7.20;99.90
21353;DHT22;10834;52.268;6.770;2023-02-13T06:17:22;7.30;99.90
21353;DHT22;10834;52.268;6.770;2023-02-13T06:20:08;7.20;99.90
21353;DHT22;10834;52.268;6.770;2023-02-13T06:22:54;7.20;99.90
21353;DHT22;10834;52.268;6.770;2023-02-13T06:25:40;7.20;99.90
21353;DHT22;10834;52.268;6.770;2023-02-13T06:28:26;7.30;99.90
21353;DHT22;10834;52.268;6.770;2023-02-13T06:31:12;7.30;99.90
21353;DHT22;10834;52.268;6.770;2023-02-13T06:33:58;7.30;99.90
21353;DHT22;10834;52.268;6.770;2023-02-13T06:36:44;7.30;99.90
21353;DHT22;10834;52.268;6.770;2023-02-13T06:39:30;7.30;99.90
21353;DHT22;10834;52.268;6.770;2023-02-13T06:42:16;7.30;99.90
21353;DHT22;10834;52.268;6.770;2023-02-13T06:45:04;7.30;99.90
21353;DHT22;10834;52.268;6.770;2023-02-13T06:47:50;7.30;99.90
21353;DHT22;10834;52.268;6.770;2023-02-13T06:50:36;7.40;99.90
21353;DHT22;10834;52.268;6.770;2023-02-13T06:53:22;7.40;99.90
21353;DHT22;10834;52.268;6.770;2023-02-13T06:56:10;7.40;99.90
21353;DHT22;10834;52.268;6.770;2023-02-13T06:58:56;7.40;99.90
21353;DHT22;10834;52.268;6.770;2023-02-13T07:01:42;7.40;99.90
21353;DHT22;10834;52.268;6.770;2023-02-13T07:04:29;7.40;99.90
21353;DHT22;10834;52.268;6.770;2023-02-13T07:07:15;7.40;99.90
21353;DHT22;10834;52.268;6.770;2023-02-13T07:10:03;7.40;99.90
21353;DHT22;10834;52.268;6.770;2023-02-13T07:12:49;7.40;99.90
21353;DHT22;10834;52.268;6.770;2023-02-13T07:15:36;7.40;99.90
21353;DHT22;10834;52.268;6.770;2023-02-13T07:18:22;7.50;99.90
21353;DHT22;10834;52.268;6.770;2023-02-13T07:21:08;7.50;99.90
21353;DHT22;10834;52.268;6.770;2023-02-13T07:23:54;7.50;99.90
21353;DHT22;10834;52.268;6.770;2023-02-13T07:26:40;7.50;99.90
21353;DHT22;10834;52.268;6.770;2023-02-13T07:29:26;7.50;99.90
21353;DHT22;10834;52.268;6.770;2023-02-13T07:32:12;7.50;99.90
21353;DHT22;10834;52.268;6.770;2023-02-13T07:34:58;7.60;99.90
21353;DHT22;10834;52.268;6.770;2023-02-13T07:37:44;7.60;99.90
21353;DHT22;10834;52.268;6.770;2023-02-13T07:40:30;7.60;99.90
21353;DHT22;10834;52.268;6.770;2023-02-13T07:43:16;7.70;99.90
21353;DHT22;10834;52.268;6.770;2023-02-13T07:46:03;7.70;99.90
21353;DHT22;10834;52.268;6.770;2023-02-13T07:48:51;7.70;99.90
21353;DHT22;10834;52.268;6.770;2023-02-13T07:51:37;7.80;99.90
21353;DHT22;10834;52.268;6.770;2023-02-13T07:54:23;7.80;99.90
21353;DHT22;10834;52.268;6.770;2023-02-13T07:57:09;7.80;99.90
21353;DHT22;10834;52.268;6.770;2023-02-13T07:59:55;7.80;99.90
21353;DHT22;10834;52.268;6.770;2023-02-13T08:02:41;7.90;99.90
21353;DHT22;10834;52.268;6.770;2023-02-13T08:05:28;7.90;99.90
21353;DHT22;10834;52.268;6.770;2023-02-13T08:08:16;7.90;99.90
21353;DHT22;10834;52.268;6.770;2023-02-13T08:11:06;8.00;99.90
21353;DHT22;10834;52.268;6.770;2023-02-13T08:14:11;8.00;99.90
21353;DHT22;10834;52.268;6.770;2023-02-13T08:16:58;8.00;99.90
21353;DHT22;10834;52.268;6.770;2023-02-13T08:19:45;8.10;99.90
21353;DHT22;10834;52.268;6.770;2023-02-13T08:22:31;8.10;99.90
21353;DHT22;10834;52.268;6.770;2023-02-13T08:25:17;8.20;99.90
21353;DHT22;10834;52.268;6.770;2023-02-13T08:28:04;8.20;99.90
21353;DHT22;10834;52.268;6.770;2023-02-13T08:30:50;8.20;99.90
21353;DHT22;10834;52.268;6.770;2023-02-13T08:33:36;8.30;99.90
21353;DHT22;10834;52.268;6.770;2023-02-13T08:36:23;8.30;99.90
21353;DHT22;10834;52.268;6.770;2023-02-13T08:39:09;8.40;99.90
21353;DHT22;10834;52.268;6.770;2023-02-13T08:41:55;8.40;99.90
21353;DHT22;10834;52.268;6.770;2023-02-13T08:44:42;8.50;99.90
21353;DHT22;10834;52.268;6.770;2023-02-13T08:47:28;8.50;99.90
21353;DHT22;10834;52.268;6.770;2023-02-13T08:50:14;8.60;99.90
21353;DHT22;10834;52.268;6.770;2023-02-13T08:53:00;8.60;99.90
21353;DHT22;10834;52.268;6.770;2023-02-13T08:55:54;8.70;99.90
21353;DHT22;10834;52.268;6.770;2023-02-13T08:58:40;8.80;99.90
21353;DHT22;10834;52.268;6.770;2023-02-13T09:01:26;8.80;99.90
21353;DHT22;10834;52.268;6.770;2023-02-13T09:04:13;8.90;99.90
21353;DHT22;10834;52.268;6.770;2023-02-13T09:07:03;9.00;99.90
21353;DHT22;10834;52.268;6.770;2023-02-13T09:09:49;9.00;99.90
21353;DHT22;10834;52.268;6.770;2023-02-13T09:12:35;9.10;99.90
21353;DHT22;10834;52.268;6.770;2023-02-13T09:15:21;9.10;99.90
21353;DHT22;10834;52.268;6.770;2023-02-13T09:18:07;9.20;99.90
21353;DHT22;10834;52.268;6.770;2023-02-13T09:21:01;9.30;99.90
21353;DHT22;10834;52.268;6.770;2023-02-13T09:23:47;9.30;99.90
21353;DHT22;10834;52.268;6.770;2023-02-13T09:26:33;9.30;99.90
21353;DHT22;10834;52.268;6.770;2023-02-13T09:29:19;9.30;99.90
21353;DHT22;10834;52.268;6.770;2023-02-13T09:32:05;9.30;99.90
21353;DHT22;10834;52.268;6.770;2023-02-13T09:34:52;9.30;99.90
21353;DHT22;10834;52.268;6.770;2023-02-13T09:37:38;9.40;99.90
21353;DHT22;10834;52.268;6.770;2023-02-13T09:40:31;9.40;99.90
21353;DHT22;10834;52.268;6.770;2023-02-13T09:46:18;9.50;99.90
21353;DHT22;10834;52.268;6.770;2023-02-13T09:49:14;9.70;99.90
21353;DHT22;10834;52.268;6.770;2023-02-13T09:52:01;9.80;99.90
21353;DHT22;10834;52.268;6.770;2023-02-13T09:54:47;9.90;99.90
21353;DHT22;10834;52.268;6.770;2023-02-13T09:57:37;9.90;99.90
21353;DHT22;10834;52.268;6.770;2023-02-13T10:00:34;10.00;99.90
21353;DHT22;10834;52.268;6.770;2023-02-13T10:03:27;10.00;99.90
21353;DHT22;10834;52.268;6.770;2023-02-13T10:06:38;10.10;99.90
21353;DHT22;10834;52.268;6.770;2023-02-13T10:09:44;10.30;99.90
21353;DHT22;10834;52.268;6.770;2023-02-13T10:13:00;10.40;99.90
21353;DHT22;10834;52.268;6.770;2023-02-13T10:16:18;10.40;99.90
21353;DHT22;10834;52.268;6.770;2023-02-13T10:22:22;10.60;99.90
21353;DHT22;10834;52.268;6.770;2023-02-13T10:25:45;10.70;99.90
21353;DHT22;10834;52.268;6.770;2023-02-13T10:28:38;10.70;99.90
21353;DHT22;10834;52.268;6.770;2023-02-13T10:31:25;10.70;99.90
21353;DHT22;10834;52.268;6.770;2023-02-13T10:34:14;10.70;99.90
21353;DHT22;10834;52.268;6.770;2023-02-13T10:37:01;10.70;99.90
21353;DHT22;10834;52.268;6.770;2023-02-13T10:39:50;10.70;99.90
21353;DHT22;10834;52.268;6.770;2023-02-13T10:43:06;10.70;99.90
21353;DHT22;10834;52.268;6.770;2023-02-13T10:46:21;10.80;99.90
21353;DHT22;10834;52.268;6.770;2023-02-13T10:52:49;11.00;99.90
21353;DHT22;10834;52.268;6.770;2023-02-13T10:59:02;11.30;99.90
21353;DHT22;10834;52.268;6.770;2023-02-13T11:01:56;11.30;99.90
21353;DHT22;10834;52.268;6.770;2023-02-13T11:04:43;11.30;99.90
21353;DHT22;10834;52.268;6.770;2023-02-13T11:07:30;11.30;99.90
21353;DHT22;10834;52.268;6.770;2023-02-13T11:10:24;11.30;99.90
21353;DHT22;10834;52.268;6.770;2023-02-13T11:13:19;11.50;99.90
21353;DHT22;10834;52.268;6.770;2023-02-13T11:16:07;11.60;99.90
21353;DHT22;10834;52.268;6.770;2023-02-13T11:18:55;11.70;99.90
21353;DHT22;10834;52.268;6.770;2023-02-13T11:21:41;11.70;99.90
21353;DHT22;10834;52.268;6.770;2023-02-13T11:24:27;11.80;99.90
21353;DHT22;10834;52.268;6.770;2023-02-13T11:27:14;11.90;99.90
21353;DHT22;10834;52.268;6.770;2023-02-13T11:30:10;12.30;99.90
21353;DHT22;10834;52.268;6.770;2023-02-13T11:33:22;12.60;99.90
21353;DHT22;10834;52.268;6.770;2023-02-13T11:36:21;12.70;99.90
21353;DHT22;10834;52.268;6.770;2023-02-13T11:39:21;12.60;99.90
21353;DHT22;10834;52.268;6.770;2023-02-13T11:45:04;12.60;99.90
21353;DHT22;10834;52.268;6.770;2023-02-13T11:47:52;12.70;99.90
21353;DHT22;10834;52.268;6.770;2023-02-13T11:50:40;12.70;99.90
21353;DHT22;10834;52.268;6.770;2023-02-13T11:53:29;12.70;99.90
21353;DHT22;10834;52.268;6.770;2023-02-13T11:56:16;12.50;99.90
21353;DHT22;10834;52.268;6.770;2023-02-13T11:59:02;12.20;99.90
21353;DHT22;10834;52.268;6.770;2023-02-13T12:02:16;12.00;99.90
21353;DHT22;10834;52.268;6.770;2023-02-13T12:05:22;11.80;99.90
21353;DHT22;10834;52.268;6.770;2023-02-13T12:08:09;11.60;99.90
21353;DHT22;10834;52.268;6.770;2023-02-13T12:10:56;11.40;99.90
21353;DHT22;10834;52.268;6.770;2023-02-13T12:13:44;11.40;99.90
21353;DHT22;10834;52.268;6.770;2023-02-13T12:16:34;11.30;99.90
21353;DHT22;10834;52.268;6.770;2023-02-13T12:19:49;11.30;99.90
21353;DHT22;10834;52.268;6.770;2023-02-13T12:26:05;11.60;99.90
21353;DHT22;10834;52.268;6.770;2023-02-13T12:29:03;11.80;99.90
21353;DHT22;10834;52.268;6.770;2023-02-13T12:32:10;11.90;99.90
21353;DHT22;10834;52.268;6.770;2023-02-13T12:35:13;12.00;99.90
21353;DHT22;10834;52.268;6.770;2023-02-13T12:38:41;12.00;99.90
21353;DHT22;10834;52.268;6.770;2023-02-13T12:41:48;12.10;99.90
21353;DHT22;10834;52.268;6.770;2023-02-13T12:47:42;12.30;99.90
21353;DHT22;10834;52.268;6.770;2023-02-13T12:54:22;12.50;99.90
21353;DHT22;10834;52.268;6.770;2023-02-13T13:09:56;12.50;99.90
21353;DHT22;10834;52.268;6.770;2023-02-13T13:22:41;12.40;99.90
21353;DHT22;10834;52.268;6.770;2023-02-13T13:28:37;12.30;99.90
21353;DHT22;10834;52.268;6.770;2023-02-13T13:31:26;12.30;99.90
21353;DHT22;10834;52.268;6.770;2023-02-13T13:34:17;12.30;99.90
21353;DHT22;10834;52.268;6.770;2023-02-13T13:40:29;12.20;99.90
21353;DHT22;10834;52.268;6.770;2023-02-13T13:43:25;12.10;99.90
21353;DHT22;10834;52.268;6.770;2023-02-13T13:46:20;12.10;99.90
21353;DHT22;10834;52.268;6.770;2023-02-13T13:52:19;11.80;99.90
21353;DHT22;10834;52.268;6.770;2023-02-13T13:55:09;11.80;99.90
21353;DHT22;10834;52.268;6.770;2023-02-13T13:58:45;11.60;99.90
21353;DHT22;10834;52.268;6.770;2023-02-13T14:01:31;11.50;99.90
21353;DHT22;10834;52.268;6.770;2023-02-13T14:07:23;11.30;99.90
21353;DHT22;10834;52.268;6.770;2023-02-13T14:13:28;11.10;99.90
21353;DHT22;10834;52.268;6.770;2023-02-13T14:16:36;11.00;99.90
21353;DHT22;10834;52.268;6.770;2023-02-13T14:19:42;10.90;99.90
21353;DHT22;10834;52.268;6.770;2023-02-13T14:22:34;10.80;99.90
21353;DHT22;10834;52.268;6.770;2023-02-13T14:25:25;10.80;99.90
21353;DHT22;10834;52.268;6.770;2023-02-13T14:28:24;10.70;99.90
21353;DHT22;10834;52.268;6.770;2023-02-13T14:31:34;10.60;99.90
21353;DHT22;10834;52.268;6.770;2023-02-13T14:34:27;10.50;99.90
21353;DHT22;10834;52.268;6.770;2023-02-13T14:37:20;10.50;99.90
21353;DHT22;10834;52.268;6.770;2023-02-13T14:43:06;10.40;99.90
21353;DHT22;10834;52.268;6.770;2023-02-13T14:46:13;10.30;99.90
21353;DHT22;10834;52.268;6.770;2023-02-13T14:49:06;10.30;99.90
21353;DHT22;10834;52.268;6.770;2023-02-13T14:52:03;10.30;99.90
21353;DHT22;10834;52.268;6.770;2023-02-13T14:54:54;10.20;99.90
21353;DHT22;10834;52.268;6.770;2023-02-13T14:58:00;10.20;99.90
21353;DHT22;10834;52.268;6.770;2023-02-13T15:01:02;10.20;99.90
21353;DHT22;10834;52.268;6.770;2023-02-13T15:04:13;10.20;99.90
21353;DHT22;10834;52.268;6.770;2023-02-13T15:07:02;10.10;99.90
21353;DHT22;10834;52.268;6.770;2023-02-13T15:10:05;10.10;99.90
21353;DHT22;10834;52.268;6.770;2023-02-13T15:13:00;10.00;99.90
21353;DHT22;10834;52.268;6.770;2023-02-13T15:16:02;10.00;99.90
21353;DHT22;10834;52.268;6.770;2023-02-13T15:18:49;10.00;99.90
21353;DHT22;10834;52.268;6.770;2023-02-13T15:21:55;9.90;99.90
21353;DHT22;10834;52.268;6.770;2023-02-13T15:24:46;9.90;99.90
21353;DHT22;10834;52.268;6.770;2023-02-13T15:27:39;9.80;99.90
21353;DHT22;10834;52.268;6.770;2023-02-13T15:30:28;9.80;99.90
21353;DHT22;10834;52.268;6.770;2023-02-13T15:33:17;9.80;99.90
21353;DHT22;10834;52.268;6.770;2023-02-13T15:36:05;9.80;99.90
21353;DHT22;10834;52.268;6.770;2023-02-13T15:39:02;9.70;99.90
21353;DHT22;10834;52.268;6.770;2023-02-13T15:41:59;9.70;99.90
21353;DHT22;10834;52.268;6.770;2023-02-13T15:44:51;9.60;99.90
21353;DHT22;10834;52.268;6.770;2023-02-13T15:47:42;9.60;99.90
21353;DHT22;10834;52.268;6.770;2023-02-13T15:50:33;9.50;99.90
21353;DHT22;10834;52.268;6.770;2023-02-13T15:53:20;9.50;99.90
21353;DHT22;10834;52.268;6.770;2023-02-13T15:56:13;9.50;99.90
21353;DHT22;10834;52.268;6.770;2023-02-13T15:59:00;9.40;99.90
21353;DHT22;10834;52.268;6.770;2023-02-13T16:01:46;9.40;99.90
21353;DHT22;10834;52.268;6.770;2023-02-13T16:04:33;9.30;99.90
21353;DHT22;10834;52.268;6.770;2023-02-13T16:07:20;9.20;99.90
21353;DHT22;10834;52.268;6.770;2023-02-13T16:10:30;9.10;99.90
21353;DHT22;10834;52.268;6.770;2023-02-13T16:13:17;9.10;99.90
21353;DHT22;10834;52.268;6.770;2023-02-13T16:16:08;8.90;99.90
21353;DHT22;10834;52.268;6.770;2023-02-13T16:18:55;8.90;99.90
21353;DHT22;10834;52.268;6.770;2023-02-13T16:21:41;8.90;99.90
21353;DHT22;10834;52.268;6.770;2023-02-13T16:24:28;8.90;99.90
21353;DHT22;10834;52.268;6.770;2023-02-13T16:27:15;8.70;99.90
21353;DHT22;10834;52.268;6.770;2023-02-13T16:30:05;8.60;99.90
21353;DHT22;10834;52.268;6.770;2023-02-13T16:36:18;8.50;99.90
21353;DHT22;10834;52.268;6.770;2023-02-13T16:39:17;8.40;99.90
21353;DHT22;10834;52.268;6.770;2023-02-13T16:42:12;8.30;99.90
21353;DHT22;10834;52.268;6.770;2023-02-13T16:45:30;8.20;99.90
21353;DHT22;10834;52.268;6.770;2023-02-13T16:48:16;8.10;99.90
21353;DHT22;10834;52.268;6.770;2023-02-13T16:51:02;8.00;99.90
21353;DHT22;10834;52.268;6.770;2023-02-13T16:53:58;7.90;99.90
21353;DHT22;10834;52.268;6.770;2023-02-13T17:00:05;7.80;99.90
21353;DHT22;10834;52.268;6.770;2023-02-13T17:02:53;7.70;99.90
21353;DHT22;10834;52.268;6.770;2023-02-13T17:05:39;7.60;99.90
21353;DHT22;10834;52.268;6.770;2023-02-13T17:08:25;7.50;99.90
21353;DHT22;10834;52.268;6.770;2023-02-13T17:11:16;7.40;99.90
21353;DHT22;10834;52.268;6.770;2023-02-13T17:14:03;7.30;99.90
21353;DHT22;10834;52.268;6.770;2023-02-13T17:16:49;7.30;99.90
21353;DHT22;10834;52.268;6.770;2023-02-13T17:19:35;7.20;99.90
21353;DHT22;10834;52.268;6.770;2023-02-13T17:22:31;7.10;99.90
21353;DHT22;10834;52.268;6.770;2023-02-13T17:25:24;7.10;99.90
21353;DHT22;10834;52.268;6.770;2023-02-13T17:28:22;7.00;99.90
21353;DHT22;10834;52.268;6.770;2023-02-13T17:31:10;7.00;99.90
21353;DHT22;10834;52.268;6.770;2023-02-13T17:33:56;6.90;99.90
21353;DHT22;10834;52.268;6.770;2023-02-13T17:36:42;6.80;99.90
21353;DHT22;10834;52.268;6.770;2023-02-13T17:39:28;6.80;99.90
21353;DHT22;10834;52.268;6.770;2023-02-13T17:42:20;6.70;99.90
21353;DHT22;10834;52.268;6.770;2023-02-13T17:45:06;6.70;99.90
21353;DHT22;10834;52.268;6.770;2023-02-13T17:47:53;6.60;99.90
21353;DHT22;10834;52.268;6.770;2023-02-13T17:50:39;6.50;99.90
21353;DHT22;10834;52.268;6.770;2023-02-13T17:53:27;6.50;99.90
21353;DHT22;10834;52.268;6.770;2023-02-13T17:56:16;6.50;99.90
21353;DHT22;10834;52.268;6.770;2023-02-13T17:59:02;6.40;99.90
21353;DHT22;10834;52.268;6.770;2023-02-13T18:01:48;6.40;99.90
21353;DHT22;10834;52.268;6.770;2023-02-13T18:04:34;6.30;99.90
21353;DHT22;10834;52.268;6.770;2023-02-13T18:07:20;6.30;99.90
21353;DHT22;10834;52.268;6.770;2023-02-13T18:10:21;6.20;99.90
21353;DHT22;10834;52.268;6.770;2023-02-13T18:13:07;6.20;99.90
21353;DHT22;10834;52.268;6.770;2023-02-13T18:15:54;6.20;99.90
21353;DHT22;10834;52.268;6.770;2023-02-13T18:18:40;6.20;99.90
21353;DHT22;10834;52.268;6.770;2023-02-13T18:21:26;6.10;99.90
21353;DHT22;10834;52.268;6.770;2023-02-13T18:24:12;6.10;99.90
21353;DHT22;10834;52.268;6.770;2023-02-13T18:26:58;6.10;99.90
21353;DHT22;10834;52.268;6.770;2023-02-13T18:29:44;6.00;99.90
21353;DHT22;10834;52.268;6.770;2023-02-13T18:32:30;6.00;99.90
21353;DHT22;10834;52.268;6.770;2023-02-13T18:35:16;6.00;99.90
21353;DHT22;10834;52.268;6.770;2023-02-13T18:38:03;6.00;99.90
21353;DHT22;10834;52.268;6.770;2023-02-13T18:40:49;6.00;99.90
21353;DHT22;10834;52.268;6.770;2023-02-13T18:43:35;6.00;99.90
21353;DHT22;10834;52.268;6.770;2023-02-13T18:46:21;6.00;99.90
21353;DHT22;10834;52.268;6.770;2023-02-13T18:49:09;6.00;99.90
21353;DHT22;10834;52.268;6.770;2023-02-13T18:51:57;5.90;99.90
21353;DHT22;10834;52.268;6.770;2023-02-13T18:54:43;5.90;99.90
21353;DHT22;10834;52.268;6.770;2023-02-13T18:57:29;5.80;99.90
21353;DHT22;10834;52.268;6.770;2023-02-13T19:00:15;5.80;99.90
21353;DHT22;10834;52.268;6.770;2023-02-13T19:03:01;5.80;99.90
21353;DHT22;10834;52.268;6.770;2023-02-13T19:05:48;5.80;99.90
21353;DHT22;10834;52.268;6.770;2023-02-13T19:08:35;5.70;99.90
21353;DHT22;10834;52.268;6.770;2023-02-13T19:11:21;5.70;99.90
21353;DHT22;10834;52.268;6.770;2023-02-13T19:14:12;5.60;99.90
21353;DHT22;10834;52.268;6.770;2023-02-13T19:16:58;5.60;99.90
21353;DHT22;10834;52.268;6.770;2023-02-13T19:19:44;5.60;99.90
21353;DHT22;10834;52.268;6.770;2023-02-13T19:22:33;5.60;99.90
21353;DHT22;10834;52.268;6.770;2023-02-13T19:25:19;5.50;99.90
21353;DHT22;10834;52.268;6.770;2023-02-13T19:28:06;5.50;99.90
21353;DHT22;10834;52.268;6.770;2023-02-13T19:30:52;5.40;99.90
21353;DHT22;10834;52.268;6.770;2023-02-13T19:33:38;5.40;99.90
21353;DHT22;10834;52.268;6.770;2023-02-13T19:36:25;5.40;99.90
21353;DHT22;10834;52.268;6.770;2023-02-13T19:39:12;5.40;99.90
21353;DHT22;10834;52.268;6.770;2023-02-13T19:41:58;5.30;99.90
21353;DHT22;10834;52.268;6.770;2023-02-13T19:44:44;5.30;99.90
21353;DHT22;10834;52.268;6.770;2023-02-13T19:47:31;5.30;99.90
21353;DHT22;10834;52.268;6.770;2023-02-13T19:50:17;5.20;99.90
21353;DHT22;10834;52.268;6.770;2023-02-13T19:53:03;5.20;99.90
21353;DHT22;10834;52.268;6.770;2023-02-13T19:55:57;5.20;99.90
21353;DHT22;10834;52.268;6.770;2023-02-13T19:58:44;5.20;99.90